ITY621 KLAX-LIRF
Flight info
| Callsign | ITY621 |
|---|---|
| Flight time | N/A |
| Altitude | 37000 |
| Route | ORCKA5 LAS Q70 BLIPP Q842 WINEN DCT MLF J107 DPR DCT GFK DCT GABOV DCT VIRSO/N0481F390 DCT 5630N07000W DCT LAKES/M085F390 DCT TOXIT DCT 60N050W 6030N04000W 5930N03000W 58N020W DCT SUNOT/N0490F390 DCT KESIX DCT APSOV DCT MAKUX/N0483F410 DCT SOSIM L15 KEPAD L151 MID UL612 OGULO DCT OKASI DCT OKEKO DCT MOU DCT MADIV DCT MOKIP DCT TUFTA DCT KOGAS DCT MEDAM DCT NITAM DCT MOGBO DCT ELB L146 ELKAP |
| Aircraft | A359/H-SDE2E3GHIJ3J4J5LM1ORWXY/LB1D1 |
Departure
| Time | 2026-04-25 20:12 |
|---|---|
| Airport | Los Angeles International Airport (KLAX) |
Arrival
| Time | N/A |
|---|---|
| Airport | Rome–Fiumicino Leonardo da Vinci International Airport (LIRF) |
| Time | Latitude | Longitude | Altitude | Speed | Heading |
|---|---|---|---|---|---|
| 2026-04-25 19:51 | 33.94261 | -118.41123 | 132 ft | 0 kts | 83° |
| 2026-04-25 19:54 | 33.94261 | -118.41126 | 132 ft | 0 kts | 83° |
| 2026-04-25 19:54 | 33.94257 | -118.41160 | 132 ft | 5 kts | 84° |
| 2026-04-25 19:54 | 33.94255 | -118.41196 | 132 ft | 3 kts | 93° |
| 2026-04-25 19:54 | 33.94256 | -118.41207 | 132 ft | 2 kts | 109° |
| 2026-04-25 19:55 | 33.94265 | -118.41220 | 129 ft | 2 kts | 163° |
| 2026-04-25 19:55 | 33.94284 | -118.41224 | 131 ft | 2 kts | 174° |
| 2026-04-25 19:55 | 33.94265 | -118.41222 | 129 ft | 2 kts | 173° |
| 2026-04-25 19:55 | 33.94255 | -118.41220 | 127 ft | 0 kts | 174° |
| 2026-04-25 20:02 | 33.94251 | -118.41220 | 132 ft | 2 kts | 174° |
| 2026-04-25 20:02 | 33.94202 | -118.41213 | 128 ft | 12 kts | 173° |
| 2026-04-25 20:02 | 33.94098 | -118.41196 | 129 ft | 18 kts | 173° |
| 2026-04-25 20:03 | 33.93970 | -118.41178 | 126 ft | 19 kts | 173° |
| 2026-04-25 20:03 | 33.93843 | -118.41160 | 128 ft | 18 kts | 173° |
| 2026-04-25 20:03 | 33.93770 | -118.41078 | 128 ft | 14 kts | 95° |
| 2026-04-25 20:03 | 33.93780 | -118.40960 | 132 ft | 15 kts | 83° |
| 2026-04-25 20:04 | 33.93793 | -118.40834 | 128 ft | 16 kts | 83° |
| 2026-04-25 20:04 | 33.93807 | -118.40700 | 132 ft | 16 kts | 82° |
| 2026-04-25 20:04 | 33.93821 | -118.40560 | 121 ft | 17 kts | 83° |
| 2026-04-25 20:04 | 33.93836 | -118.40413 | 129 ft | 18 kts | 83° |
| 2026-04-25 20:05 | 33.93852 | -118.40259 | 124 ft | 19 kts | 83° |
| 2026-04-25 20:05 | 33.93868 | -118.40104 | 123 ft | 19 kts | 83° |
| 2026-04-25 20:05 | 33.93885 | -118.39943 | 127 ft | 20 kts | 83° |
| 2026-04-25 20:05 | 33.93902 | -118.39776 | 128 ft | 20 kts | 83° |
| 2026-04-25 20:06 | 33.93919 | -118.39605 | 126 ft | 21 kts | 85° |
| 2026-04-25 20:06 | 33.93936 | -118.39430 | 122 ft | 22 kts | 83° |
| 2026-04-25 20:06 | 33.93955 | -118.39248 | 124 ft | 22 kts | 83° |
| 2026-04-25 20:06 | 33.93974 | -118.39062 | 132 ft | 23 kts | 83° |
| 2026-04-25 20:07 | 33.93994 | -118.38872 | 129 ft | 23 kts | 83° |
| 2026-04-25 20:07 | 33.94013 | -118.38678 | 124 ft | 24 kts | 83° |
| 2026-04-25 20:07 | 33.94025 | -118.38562 | 128 ft | 8 kts | 83° |
| 2026-04-25 20:07 | 33.94033 | -118.38482 | 128 ft | 16 kts | 83° |
| 2026-04-25 20:08 | 33.94039 | -118.38433 | 123 ft | 0 kts | 83° |
| 2026-04-25 20:08 | 33.94049 | -118.38329 | 128 ft | 24 kts | 83° |
| 2026-04-25 20:08 | 33.94066 | -118.38151 | 132 ft | 18 kts | 83° |
| 2026-04-25 20:08 | 33.94071 | -118.38108 | 126 ft | 0 kts | 83° |
| 2026-04-25 20:10 | 33.94073 | -118.38088 | 125 ft | 9 kts | 83° |
| 2026-04-25 20:11 | 33.94062 | -118.38026 | 126 ft | 6 kts | 131° |
| 2026-04-25 20:11 | 33.94019 | -118.38008 | 128 ft | 5 kts | 191° |
| 2026-04-25 20:11 | 33.93991 | -118.38040 | 123 ft | 8 kts | 242° |
| 2026-04-25 20:11 | 33.93956 | -118.38237 | 132 ft | 51 kts | 260° |
| 2026-04-25 20:12 | 33.93892 | -118.38882 | 129 ft | 103 kts | 265° |
| 2026-04-25 20:12 | 33.93789 | -118.39935 | 128 ft | 149 kts | 263° |
| 2026-04-25 20:12 | 33.93691 | -118.41254 | 525 ft | 153 kts | 261° |
| 2026-04-25 20:12 | 33.93667 | -118.41675 | 811 ft | 148 kts | 262° |
| 2026-04-25 20:13 | 33.93497 | -118.43733 | 1685 ft | 156 kts | 259° |
| 2026-04-25 20:13 | 33.93315 | -118.45093 | 1867 ft | 173 kts | 258° |
| 2026-04-25 20:13 | 33.93045 | -118.46563 | 2136 ft | 186 kts | 251° |
| 2026-04-25 20:13 | 33.92577 | -118.48067 | 2379 ft | 200 kts | 245° |
| 2026-04-25 20:14 | 33.91996 | -118.49659 | 2608 ft | 213 kts | 245° |
| 2026-04-25 20:14 | 33.91367 | -118.51322 | 2987 ft | 222 kts | 244° |
| 2026-04-25 20:14 | 33.90695 | -118.53062 | 3325 ft | 236 kts | 243° |
| 2026-04-25 20:14 | 33.89997 | -118.54891 | 3609 ft | 252 kts | 245° |
| 2026-04-25 20:15 | 33.89328 | -118.56865 | 4144 ft | 256 kts | 247° |
| 2026-04-25 20:15 | 33.88681 | -118.58875 | 4700 ft | 259 kts | 247° |
| 2026-04-25 20:15 | 33.88000 | -118.60885 | 5296 ft | 260 kts | 246° |
| 2026-04-25 20:15 | 33.87291 | -118.62861 | 6007 ft | 256 kts | 246° |
| 2026-04-25 20:16 | 33.86565 | -118.64853 | 6479 ft | 262 kts | 247° |
| 2026-04-25 20:16 | 33.85854 | -118.66869 | 7097 ft | 259 kts | 248° |
| 2026-04-25 20:16 | 33.84947 | -118.68728 | 7629 ft | 262 kts | 229° |
| 2026-04-25 20:16 | 33.83458 | -118.70022 | 8116 ft | 267 kts | 204° |
| 2026-04-25 20:17 | 33.81632 | -118.70614 | 8538 ft | 277 kts | 192° |
| 2026-04-25 20:17 | 33.79754 | -118.71019 | 9138 ft | 276 kts | 192° |
| 2026-04-25 20:17 | 33.77879 | -118.71392 | 9938 ft | 270 kts | 191° |
| 2026-04-25 20:17 | 33.75989 | -118.71763 | 10264 ft | 281 kts | 192° |
| 2026-04-25 20:18 | 33.74023 | -118.72157 | 10613 ft | 289 kts | 192° |
| 2026-04-25 20:18 | 33.72011 | -118.72497 | 11066 ft | 294 kts | 188° |
| 2026-04-25 20:18 | 33.69961 | -118.72385 | 11691 ft | 296 kts | 174° |
| 2026-04-25 20:18 | 33.67996 | -118.71628 | 12421 ft | 298 kts | 161° |
| 2026-04-25 20:19 | 33.66280 | -118.70181 | 12972 ft | 312 kts | 143° |
| 2026-04-25 20:19 | 33.65044 | -118.67911 | 12934 ft | 347 kts | 116° |
| 2026-04-25 20:19 | 33.64637 | -118.64987 | 13261 ft | 366 kts | 93° |
| 2026-04-25 20:19 | 33.65162 | -118.61925 | 13460 ft | 385 kts | 70° |
| 2026-04-25 20:20 | 33.66594 | -118.59183 | 13823 ft | 392 kts | 47° |
| 2026-04-25 20:20 | 33.68717 | -118.57156 | 14266 ft | 390 kts | 26° |
| 2026-04-25 20:20 | 33.71249 | -118.56030 | 14518 ft | 388 kts | 4° |
| 2026-04-25 20:20 | 33.73935 | -118.56004 | 14681 ft | 389 kts | 350° |
| 2026-04-25 20:21 | 33.76698 | -118.55797 | 14824 ft | 408 kts | 7° |
| 2026-04-25 20:21 | 33.79417 | -118.54625 | 14971 ft | 424 kts | 26° |
| 2026-04-25 20:21 | 33.81961 | -118.52753 | 15131 ft | 434 kts | 33° |
| 2026-04-25 20:21 | 33.84484 | -118.50702 | 15287 ft | 441 kts | 29° |
| 2026-04-25 20:22 | 33.87191 | -118.48940 | 15531 ft | 445 kts | 24° |
| 2026-04-25 20:22 | 33.88093 | -118.48393 | 15636 ft | 446 kts | 25° |
| 2026-04-25 20:22 | 33.92422 | -118.44905 | 16199 ft | 452 kts | 44° |
| 2026-04-25 20:22 | 33.94401 | -118.41957 | 16545 ft | 454 kts | 57° |
| 2026-04-25 20:23 | 33.96094 | -118.38797 | 16898 ft | 455 kts | 58° |
| 2026-04-25 20:23 | 33.97812 | -118.35582 | 17235 ft | 457 kts | 57° |
| 2026-04-25 20:23 | 33.99567 | -118.32372 | 17568 ft | 460 kts | 57° |
| 2026-04-25 20:23 | 34.01349 | -118.29164 | 17977 ft | 461 kts | 56° |
| 2026-04-25 20:24 | 34.03154 | -118.25959 | 18418 ft | 462 kts | 56° |
| 2026-04-25 20:24 | 34.04967 | -118.22737 | 18667 ft | 467 kts | 56° |
| 2026-04-25 20:24 | 34.06803 | -118.19480 | 18972 ft | 471 kts | 56° |
| 2026-04-25 20:24 | 34.08649 | -118.16208 | 19242 ft | 472 kts | 56° |
| 2026-04-25 20:25 | 34.10507 | -118.12918 | 19508 ft | 475 kts | 56° |
| 2026-04-25 20:25 | 34.12371 | -118.09617 | 19769 ft | 477 kts | 56° |
| 2026-04-25 20:25 | 34.14248 | -118.06293 | 20013 ft | 480 kts | 56° |
| 2026-04-25 20:25 | 34.16127 | -118.02955 | 20294 ft | 482 kts | 56° |
| 2026-04-25 20:26 | 34.17990 | -117.99644 | 20568 ft | 484 kts | 56° |
| 2026-04-25 20:26 | 34.19885 | -117.96272 | 20837 ft | 486 kts | 56° |
| 2026-04-25 20:26 | 34.21788 | -117.92885 | 21045 ft | 489 kts | 56° |
| 2026-04-25 20:26 | 34.23701 | -117.89477 | 21302 ft | 490 kts | 56° |
| 2026-04-25 20:27 | 34.25620 | -117.86059 | 21518 ft | 492 kts | 56° |
| 2026-04-25 20:27 | 34.27551 | -117.82612 | 21747 ft | 495 kts | 56° |
| 2026-04-25 20:27 | 34.29488 | -117.79151 | 21999 ft | 497 kts | 56° |
| 2026-04-25 20:27 | 34.31428 | -117.75683 | 22262 ft | 498 kts | 56° |
| 2026-04-25 20:28 | 34.33374 | -117.72201 | 22480 ft | 501 kts | 56° |
| 2026-04-25 20:28 | 34.35330 | -117.68697 | 22726 ft | 503 kts | 56° |
| 2026-04-25 20:28 | 34.37356 | -117.65232 | 22945 ft | 506 kts | 54° |
| 2026-04-25 20:28 | 34.39437 | -117.61784 | 23141 ft | 508 kts | 54° |
| 2026-04-25 20:29 | 34.41524 | -117.58320 | 23314 ft | 510 kts | 54° |
| 2026-04-25 20:29 | 34.43589 | -117.54879 | 23492 ft | 512 kts | 54° |
| 2026-04-25 20:29 | 34.45678 | -117.51386 | 23767 ft | 512 kts | 54° |
| 2026-04-25 20:29 | 34.47766 | -117.47887 | 23960 ft | 513 kts | 54° |
| 2026-04-25 20:30 | 34.49857 | -117.44374 | 24183 ft | 514 kts | 54° |
| 2026-04-25 20:30 | 34.51948 | -117.40857 | 24390 ft | 515 kts | 54° |
| 2026-04-25 20:30 | 34.54045 | -117.37325 | 24562 ft | 517 kts | 54° |
| 2026-04-25 20:30 | 34.56148 | -117.33779 | 24742 ft | 518 kts | 54° |
| 2026-04-25 20:31 | 34.58258 | -117.30217 | 24943 ft | 520 kts | 54° |
| 2026-04-25 20:31 | 34.60370 | -117.26648 | 25124 ft | 521 kts | 54° |
| 2026-04-25 20:31 | 34.61771 | -117.24277 | 25249 ft | 522 kts | 54° |
| 2026-04-25 20:31 | 34.63894 | -117.20684 | 25438 ft | 524 kts | 54° |
| 2026-04-25 20:32 | 34.66022 | -117.17079 | 25576 ft | 525 kts | 54° |
| 2026-04-25 20:32 | 34.68151 | -117.13465 | 25795 ft | 526 kts | 54° |
| 2026-04-25 20:32 | 34.70284 | -117.09844 | 26010 ft | 528 kts | 54° |
| 2026-04-25 20:32 | 34.72421 | -117.06213 | 26204 ft | 529 kts | 54° |
| 2026-04-25 20:33 | 34.74569 | -117.02558 | 26407 ft | 531 kts | 54° |
| 2026-04-25 20:33 | 34.76723 | -116.98889 | 26601 ft | 533 kts | 54° |
| 2026-04-25 20:33 | 34.78879 | -116.95214 | 26807 ft | 534 kts | 54° |
| 2026-04-25 20:33 | 34.80311 | -116.92770 | 26953 ft | 535 kts | 54° |
| 2026-04-25 20:34 | 34.83203 | -116.87830 | 27245 ft | 537 kts | 54° |
| 2026-04-25 20:34 | 34.85347 | -116.84161 | 27488 ft | 538 kts | 54° |
| 2026-04-25 20:34 | 34.87522 | -116.80438 | 27675 ft | 540 kts | 54° |
| 2026-04-25 20:34 | 34.89704 | -116.76700 | 27863 ft | 542 kts | 54° |
| 2026-04-25 20:35 | 34.91956 | -116.72995 | 28050 ft | 543 kts | 49° |
| 2026-04-25 20:35 | 34.94448 | -116.69537 | 28233 ft | 544 kts | 46° |
| 2026-04-25 20:35 | 34.97018 | -116.66146 | 28423 ft | 545 kts | 45° |
| 2026-04-25 20:35 | 34.99607 | -116.62749 | 28597 ft | 547 kts | 45° |
| 2026-04-25 20:36 | 35.02202 | -116.59338 | 28784 ft | 549 kts | 45° |
| 2026-04-25 20:36 | 35.04798 | -116.55919 | 28967 ft | 550 kts | 45° |
| 2026-04-25 20:36 | 35.07403 | -116.52483 | 29159 ft | 551 kts | 45° |
| 2026-04-25 20:36 | 35.10008 | -116.49042 | 29325 ft | 553 kts | 45° |
| 2026-04-25 20:37 | 35.12586 | -116.45632 | 29493 ft | 554 kts | 45° |
| 2026-04-25 20:37 | 35.15204 | -116.42166 | 29681 ft | 556 kts | 45° |
| 2026-04-25 20:37 | 35.17825 | -116.38692 | 29936 ft | 556 kts | 45° |
| 2026-04-25 20:37 | 35.20442 | -116.35218 | 30236 ft | 554 kts | 45° |
| 2026-04-25 20:38 | 35.23050 | -116.31753 | 30455 ft | 554 kts | 45° |
| 2026-04-25 20:38 | 35.25664 | -116.28277 | 30680 ft | 554 kts | 45° |
| 2026-04-25 20:38 | 35.28274 | -116.24802 | 30898 ft | 554 kts | 46° |
| 2026-04-25 20:38 | 35.30872 | -116.21339 | 31298 ft | 550 kts | 46° |
| 2026-04-25 20:39 | 35.33462 | -116.17881 | 31534 ft | 550 kts | 46° |
| 2026-04-25 20:39 | 35.36057 | -116.14417 | 31756 ft | 550 kts | 46° |
| 2026-04-25 20:39 | 35.38642 | -116.10964 | 31983 ft | 551 kts | 46° |
| 2026-04-25 20:39 | 35.40359 | -116.08668 | 32139 ft | 551 kts | 46° |
| 2026-04-25 20:40 | 35.43818 | -116.04037 | 32442 ft | 550 kts | 46° |
| 2026-04-25 20:40 | 35.46399 | -116.00578 | 32675 ft | 551 kts | 46° |
| 2026-04-25 20:40 | 35.48984 | -115.97109 | 32906 ft | 550 kts | 46° |
| 2026-04-25 20:40 | 35.51532 | -115.93685 | 33151 ft | 550 kts | 46° |
| 2026-04-25 20:41 | 35.54105 | -115.90224 | 33418 ft | 549 kts | 46° |
| 2026-04-25 20:41 | 35.56676 | -115.86763 | 33652 ft | 548 kts | 46° |
| 2026-04-25 20:41 | 35.59282 | -115.83253 | 33835 ft | 549 kts | 46° |
| 2026-04-25 20:41 | 35.61852 | -115.79786 | 34009 ft | 549 kts | 46° |
| 2026-04-25 20:42 | 35.64427 | -115.76310 | 34167 ft | 550 kts | 46° |
| 2026-04-25 20:42 | 35.66950 | -115.72857 | 34318 ft | 551 kts | 47° |
| 2026-04-25 20:42 | 35.69498 | -115.69342 | 34473 ft | 551 kts | 47° |
| 2026-04-25 20:42 | 35.72051 | -115.65820 | 34634 ft | 552 kts | 47° |
| 2026-04-25 20:43 | 35.74607 | -115.62295 | 34760 ft | 552 kts | 46° |
| 2026-04-25 20:43 | 35.77172 | -115.58755 | 34873 ft | 554 kts | 46° |
| 2026-04-25 20:43 | 35.79737 | -115.55213 | 35021 ft | 554 kts | 46° |
| 2026-04-25 20:43 | 35.82304 | -115.51665 | 35212 ft | 554 kts | 46° |
| 2026-04-25 20:44 | 35.84868 | -115.48118 | 35428 ft | 553 kts | 46° |
| 2026-04-25 20:44 | 35.87429 | -115.44579 | 35574 ft | 554 kts | 46° |
| 2026-04-25 20:44 | 35.89989 | -115.41031 | 35711 ft | 554 kts | 46° |
| 2026-04-25 20:44 | 35.92552 | -115.37472 | 35836 ft | 555 kts | 46° |
| 2026-04-25 20:45 | 35.95114 | -115.33912 | 35975 ft | 555 kts | 46° |
| 2026-04-25 20:45 | 35.97678 | -115.30346 | 36144 ft | 555 kts | 46° |
| 2026-04-25 20:45 | 36.00235 | -115.26786 | 36325 ft | 554 kts | 46° |
| 2026-04-25 20:45 | 36.02792 | -115.23225 | 36383 ft | 555 kts | 46° |
| 2026-04-25 20:46 | 36.05354 | -115.19653 | 36488 ft | 555 kts | 46° |
| 2026-04-25 20:46 | 36.07971 | -115.16142 | 36585 ft | 554 kts | 41° |
| 2026-04-25 20:46 | 36.10784 | -115.12878 | 36703 ft | 553 kts | 38° |
| 2026-04-25 20:46 | 36.13628 | -115.09754 | 36790 ft | 554 kts | 37° |
| 2026-04-25 20:47 | 36.19488 | -115.03509 | 36730 ft | 558 kts | 37° |
| 2026-04-25 20:47 | 36.25358 | -114.97252 | 36735 ft | 556 kts | 37° |
| 2026-04-25 20:48 | 36.31199 | -114.90962 | 36720 ft | 556 kts | 37° |
| 2026-04-25 20:48 | 36.37024 | -114.84650 | 36703 ft | 556 kts | 38° |
| 2026-04-25 20:49 | 36.42855 | -114.78320 | 36692 ft | 556 kts | 37° |
| 2026-04-25 20:49 | 36.48675 | -114.71993 | 36680 ft | 556 kts | 38° |
| 2026-04-25 20:50 | 36.54453 | -114.65692 | 36676 ft | 556 kts | 38° |
| 2026-04-25 20:50 | 36.60265 | -114.59341 | 36673 ft | 556 kts | 38° |
| 2026-04-25 20:51 | 36.66074 | -114.52983 | 36676 ft | 556 kts | 38° |
| 2026-04-25 20:51 | 36.72020 | -114.46886 | 36695 ft | 551 kts | 29° |
| 2026-04-25 20:52 | 36.77330 | -114.42522 | 36691 ft | 549 kts | 28° |
| 2026-04-25 20:52 | 36.84905 | -114.36580 | 36696 ft | 548 kts | 27° |
| 2026-04-25 20:53 | 36.91375 | -114.31533 | 36702 ft | 548 kts | 27° |
| 2026-04-25 20:53 | 36.97833 | -114.26459 | 36702 ft | 548 kts | 27° |
| 2026-04-25 20:54 | 37.04251 | -114.21401 | 36720 ft | 547 kts | 27° |
| 2026-04-25 20:54 | 37.10688 | -114.16314 | 36721 ft | 547 kts | 27° |
| 2026-04-25 20:55 | 37.17119 | -114.11218 | 36733 ft | 547 kts | 27° |
| 2026-04-25 20:55 | 37.23553 | -114.06108 | 36739 ft | 547 kts | 27° |
| 2026-04-25 20:56 | 37.29943 | -114.01019 | 36746 ft | 546 kts | 27° |
| 2026-04-25 20:56 | 37.36348 | -113.95912 | 36752 ft | 545 kts | 27° |
| 2026-04-25 20:57 | 37.42753 | -113.90798 | 36751 ft | 545 kts | 27° |
| 2026-04-25 20:57 | 37.49159 | -113.85671 | 36761 ft | 545 kts | 27° |
| 2026-04-25 20:58 | 37.55556 | -113.80539 | 36775 ft | 545 kts | 27° |
| 2026-04-25 20:58 | 37.61949 | -113.75398 | 36761 ft | 544 kts | 27° |
| 2026-04-25 20:59 | 37.68335 | -113.70253 | 36761 ft | 544 kts | 27° |
| 2026-04-25 20:59 | 37.74670 | -113.65140 | 36756 ft | 544 kts | 27° |
| 2026-04-25 21:00 | 37.78944 | -113.61686 | 36759 ft | 544 kts | 27° |
| 2026-04-25 21:01 | 37.90618 | -113.52223 | 36752 ft | 543 kts | 27° |
| 2026-04-25 21:01 | 37.96616 | -113.46296 | 36747 ft | 549 kts | 37° |
| 2026-04-25 21:02 | 38.02359 | -113.39878 | 36742 ft | 550 kts | 38° |
| 2026-04-25 21:02 | 38.08006 | -113.33425 | 36749 ft | 549 kts | 38° |
| 2026-04-25 21:03 | 38.13679 | -113.26935 | 36746 ft | 548 kts | 38° |
| 2026-04-25 21:03 | 38.19347 | -113.20460 | 36774 ft | 548 kts | 38° |
| 2026-04-25 21:04 | 38.25023 | -113.13971 | 36797 ft | 548 kts | 38° |
| 2026-04-25 21:04 | 38.30690 | -113.07481 | 36821 ft | 547 kts | 38° |
| 2026-04-25 21:05 | 38.36348 | -113.00985 | 36833 ft | 546 kts | 38° |
| 2026-04-25 21:05 | 38.41941 | -112.94525 | 36832 ft | 546 kts | 38° |
| 2026-04-25 21:06 | 38.47563 | -112.87987 | 36825 ft | 546 kts | 38° |
| 2026-04-25 21:06 | 38.53187 | -112.81435 | 36803 ft | 547 kts | 38° |
| 2026-04-25 21:07 | 38.58798 | -112.74876 | 36785 ft | 546 kts | 38° |
| 2026-04-25 21:07 | 38.64422 | -112.68307 | 36790 ft | 548 kts | 38° |
| 2026-04-25 21:08 | 38.70018 | -112.61763 | 36770 ft | 549 kts | 38° |
| 2026-04-25 21:08 | 38.75667 | -112.55137 | 36778 ft | 550 kts | 38° |
| 2026-04-25 21:09 | 38.84116 | -112.45190 | 36877 ft | 550 kts | 38° |
| 2026-04-25 21:09 | 38.89750 | -112.38536 | 36879 ft | 550 kts | 38° |
| 2026-04-25 21:10 | 38.95389 | -112.31866 | 36880 ft | 550 kts | 38° |
| 2026-04-25 21:10 | 39.01014 | -112.25196 | 36875 ft | 550 kts | 38° |
| 2026-04-25 21:11 | 39.06602 | -112.18554 | 36845 ft | 550 kts | 38° |
| 2026-04-25 21:11 | 39.12225 | -112.11856 | 36828 ft | 550 kts | 38° |
| 2026-04-25 21:12 | 39.17852 | -112.05180 | 36786 ft | 549 kts | 38° |
| 2026-04-25 21:12 | 39.21600 | -112.00694 | 36794 ft | 550 kts | 38° |
| 2026-04-25 21:13 | 39.29045 | -111.91712 | 36783 ft | 550 kts | 39° |
| 2026-04-25 21:13 | 39.34646 | -111.84966 | 36774 ft | 550 kts | 38° |
| 2026-04-25 21:14 | 39.40246 | -111.78234 | 36796 ft | 550 kts | 38° |
| 2026-04-25 21:14 | 39.45852 | -111.71464 | 36784 ft | 551 kts | 38° |
| 2026-04-25 21:15 | 39.51418 | -111.64714 | 36787 ft | 551 kts | 39° |
| 2026-04-25 21:15 | 39.57013 | -111.57906 | 36790 ft | 551 kts | 38° |
| 2026-04-25 21:16 | 39.62621 | -111.51108 | 36795 ft | 551 kts | 38° |
| 2026-04-25 21:16 | 39.68207 | -111.44313 | 36984 ft | 549 kts | 38° |
| 2026-04-25 21:17 | 39.70982 | -111.40926 | 37249 ft | 546 kts | 38° |
| 2026-04-25 21:17 | 39.73745 | -111.37548 | 37492 ft | 544 kts | 38° |
| 2026-04-25 21:17 | 39.76499 | -111.34176 | 37685 ft | 543 kts | 38° |
| 2026-04-25 21:17 | 39.79209 | -111.30856 | 37866 ft | 541 kts | 38° |
| 2026-04-25 21:18 | 39.81947 | -111.27494 | 38037 ft | 540 kts | 38° |